createdAt,value
2017-12-11T00:01:38.272Z,96665.61
2017-12-11T00:04:05.360Z,96664.71
2017-12-11T00:06:31.656Z,96670.25
2017-12-11T00:08:59.729Z,96661.91
2017-12-11T00:11:26.801Z,96658.86
2017-12-11T00:13:53.177Z,96648.97
2017-12-11T00:16:19.535Z,96644.25
2017-12-11T00:18:46.676Z,96657.12
2017-12-11T00:21:12.990Z,96675.38
2017-12-11T00:23:39.336Z,96678.54
2017-12-11T00:26:05.666Z,96678.16
2017-12-11T00:28:31.963Z,96667.49
2017-12-11T00:30:58.294Z,96650.06
2017-12-11T00:33:24.620Z,96684.95
2017-12-11T00:35:50.944Z,96661.73
2017-12-11T00:38:17.314Z,96684.50
2017-12-11T00:40:43.613Z,96676.41
2017-12-11T00:43:10.049Z,96702.35
2017-12-11T00:45:36.408Z,96704.90
2017-12-11T00:48:02.735Z,96693.68
2017-12-11T00:50:29.101Z,96699.41
2017-12-11T00:52:56.182Z,96697.42
2017-12-11T00:55:22.553Z,96714.00
2017-12-11T00:57:48.840Z,96694.00
2017-12-11T01:00:15.211Z,96692.81
2017-12-11T01:02:41.509Z,96707.89
2017-12-11T01:05:07.842Z,96681.95
2017-12-11T01:07:34.171Z,96696.13
2017-12-11T01:10:00.543Z,96680.41
2017-12-11T01:12:26.869Z,96685.77
2017-12-11T01:14:53.235Z,96683.64
2017-12-11T01:17:20.304Z,96690.97
2017-12-11T01:19:46.612Z,96672.56
2017-12-11T01:22:13.664Z,96661.00
2017-12-11T01:24:40.682Z,96664.34
2017-12-11T01:27:06.981Z,96678.98
2017-12-11T01:29:33.264Z,96700.71
2017-12-11T01:32:00.311Z,96704.97
2017-12-11T01:34:27.410Z,96705.22
2017-12-11T01:36:53.724Z,96724.61
2017-12-11T01:39:20.029Z,96733.13
2017-12-11T01:41:46.314Z,96729.84
2017-12-11T01:44:12.663Z,96750.37
2017-12-11T01:46:38.947Z,96747.49
2017-12-11T01:49:05.257Z,96753.19
2017-12-11T01:51:31.562Z,96760.66
2017-12-11T01:53:57.839Z,96767.09
2017-12-11T01:56:24.167Z,96765.93
2017-12-11T01:58:50.505Z,96776.36
2017-12-11T02:01:16.803Z,96781.01
2017-12-11T02:03:43.847Z,96775.38
2017-12-11T02:06:10.359Z,96775.56
2017-12-11T02:08:36.621Z,96782.89
2017-12-11T02:11:03.688Z,96781.48
2017-12-11T02:13:30.038Z,96791.91
2017-12-11T02:15:56.394Z,96786.23
2017-12-11T02:18:22.718Z,96782.12
2017-12-11T02:20:49.030Z,96792.50
2017-12-11T02:23:15.371Z,96794.23
2017-12-11T02:25:41.650Z,96774.88
2017-12-11T02:28:08.790Z,96776.17
2017-12-11T02:30:35.842Z,96783.91
2017-12-11T02:33:02.920Z,96765.93
2017-12-11T02:35:29.226Z,96769.16
2017-12-11T02:37:56.257Z,96773.45
2017-12-11T02:40:22.593Z,96761.77
2017-12-11T02:42:49.637Z,96770.77
2017-12-11T02:45:15.938Z,96774.06
2017-12-11T02:47:42.243Z,96770.66
2017-12-11T02:50:08.544Z,96772.55
2017-12-11T02:52:35.555Z,96757.41
2017-12-11T02:55:01.876Z,96773.68
2017-12-11T02:57:28.177Z,96763.69
2017-12-11T02:59:54.484Z,96770.63
2017-12-11T03:02:21.588Z,96762.13
2017-12-11T03:04:47.945Z,96773.86
2017-12-11T03:07:14.205Z,96760.59
2017-12-11T03:09:40.515Z,96760.26
2017-12-11T03:12:07.582Z,96778.88
2017-12-11T03:14:34.024Z,96768.30
2017-12-11T03:17:00.331Z,96774.70
2017-12-11T03:19:27.436Z,96776.55
2017-12-11T03:21:53.729Z,96801.20
2017-12-11T03:24:20.788Z,96782.41
2017-12-11T03:26:47.088Z,96772.56
2017-12-11T03:29:14.170Z,96791.67
2017-12-11T03:31:40.498Z,96781.91
2017-12-11T03:34:06.813Z,96780.69
2017-12-11T03:36:33.838Z,96790.16
2017-12-11T03:39:00.132Z,96800.30
2017-12-11T03:41:33.428Z,96802.92
2017-12-11T03:43:59.720Z,96797.96
2017-12-11T03:46:26.756Z,96794.73
2017-12-11T03:48:53.890Z,96789.45
2017-12-11T03:51:20.155Z,96794.49
2017-12-11T03:53:46.487Z,96811.77
2017-12-11T03:56:12.849Z,96827.63
2017-12-11T03:58:39.108Z,96837.56
2017-12-11T04:01:05.428Z,96852.25
2017-12-11T04:03:31.748Z,96862.06
2017-12-11T04:05:58.057Z,96878.34
2017-12-11T04:08:24.320Z,96876.50
2017-12-11T04:10:50.656Z,96887.02
2017-12-11T04:13:16.990Z,96891.98
2017-12-11T04:15:43.280Z,96910.25
2017-12-11T04:18:09.620Z,96905.77
2017-12-11T04:20:35.945Z,96916.20
2017-12-11T04:23:02.285Z,96933.44
2017-12-11T04:25:29.291Z,96955.45
2017-12-11T04:27:56.373Z,96950.69
2017-12-11T04:30:22.739Z,96930.58
2017-12-11T04:32:49.093Z,96924.64
2017-12-11T04:35:15.407Z,96935.98
2017-12-11T04:37:41.800Z,96954.12
2017-12-11T04:40:08.233Z,96935.49
2017-12-11T04:42:34.618Z,96935.13
2017-12-11T04:45:01.709Z,96958.29
2017-12-11T04:47:28.087Z,96948.95
2017-12-11T04:49:54.455Z,96948.80
2017-12-11T04:52:20.816Z,96959.58
2017-12-11T04:54:47.116Z,96964.99
2017-12-11T04:57:14.234Z,96965.53
2017-12-11T04:59:40.654Z,96962.59
2017-12-11T05:02:06.996Z,96970.73
2017-12-11T05:04:33.281Z,96967.68
2017-12-11T05:06:59.672Z,96971.30
2017-12-11T05:09:25.998Z,96977.98
2017-12-11T05:11:53.072Z,96982.10
2017-12-11T05:14:19.426Z,96984.59
2017-12-11T05:16:45.768Z,96987.61
2017-12-11T05:19:12.064Z,96996.56
2017-12-11T05:21:38.400Z,97001.18
2017-12-11T05:24:04.812Z,97000.11
2017-12-11T05:26:31.903Z,97010.92
2017-12-11T05:28:58.287Z,97008.10
2017-12-11T05:31:24.616Z,97012.67
2017-12-11T05:33:50.893Z,97011.63
2017-12-11T05:36:17.259Z,97017.05
2017-12-11T05:38:43.603Z,97029.73
2017-12-11T05:41:10.061Z,97023.59
2017-12-11T05:43:36.421Z,97025.59
2017-12-11T05:46:03.032Z,97020.50
2017-12-11T05:48:30.086Z,97018.16
2017-12-11T05:50:56.429Z,97016.88
2017-12-11T05:53:22.721Z,97028.68
2017-12-11T05:55:49.764Z,97022.89
2017-12-11T05:58:16.130Z,97017.62
2017-12-11T06:00:42.481Z,97022.20
2017-12-11T06:03:08.861Z,97014.13
2017-12-11T06:05:35.188Z,97010.94
2017-12-11T06:08:01.560Z,97002.95
2017-12-11T06:10:27.896Z,96990.63
2017-12-11T06:12:54.296Z,97001.36
2017-12-11T06:15:20.586Z,96996.18
2017-12-11T06:17:46.924Z,96989.22
2017-12-11T06:20:13.298Z,96986.23
2017-12-11T06:22:40.398Z,96995.90
2017-12-11T06:25:06.762Z,96995.90
2017-12-11T06:27:33.059Z,96998.19
2017-12-11T06:29:59.402Z,97001.67
2017-12-11T06:32:25.716Z,97005.79
2017-12-11T06:34:52.054Z,97007.71
2017-12-11T06:37:18.438Z,97003.19
2017-12-11T06:39:45.500Z,97004.52
2017-12-11T06:42:11.825Z,97004.30
2017-12-11T06:44:38.853Z,97009.78
2017-12-11T06:47:05.156Z,97014.80
2017-12-11T06:49:31.505Z,97024.14
2017-12-11T06:51:57.785Z,97025.97
2017-12-11T06:54:24.111Z,97038.81
2017-12-11T06:56:50.445Z,97038.91
2017-12-11T06:59:16.842Z,97037.91
2017-12-11T07:01:43.942Z,97042.30
2017-12-11T07:04:10.350Z,97037.88
2017-12-11T07:06:37.452Z,97039.66
2017-12-11T07:09:03.726Z,97046.89
2017-12-11T07:11:30.795Z,97056.86
2017-12-11T07:13:57.174Z,97055.44
2017-12-11T07:16:23.475Z,97054.47
2017-12-11T07:18:49.877Z,97060.08
2017-12-11T07:21:16.269Z,97067.09
2017-12-11T07:23:42.578Z,97072.70
2017-12-11T07:26:08.900Z,97084.66
2017-12-11T07:28:35.155Z,97082.71
2017-12-11T07:31:01.433Z,97088.70
2017-12-11T07:33:27.696Z,97081.98
2017-12-11T07:35:54.732Z,97085.59
2017-12-11T07:38:21.155Z,97089.97
2017-12-11T07:40:47.521Z,97090.91
2017-12-11T07:43:13.789Z,97082.27
2017-12-11T07:45:40.055Z,97081.34
2017-12-11T07:48:06.343Z,97083.58
2017-12-11T07:50:33.401Z,97076.23
2017-12-11T07:53:00.424Z,97091.80
2017-12-11T07:55:26.801Z,97095.80
2017-12-11T07:57:53.100Z,97093.11
2017-12-11T08:00:19.404Z,97093.76
2017-12-11T08:02:45.679Z,97099.19
2017-12-11T08:05:12.760Z,97107.05
2017-12-11T08:07:39.030Z,97111.69
2017-12-11T08:10:06.094Z,97106.46
2017-12-11T08:12:33.134Z,97109.06
2017-12-11T08:15:00.236Z,97126.98
2017-12-11T08:17:26.552Z,97129.64
2017-12-11T08:19:52.840Z,97121.83
2017-12-11T08:22:19.876Z,97108.23
2017-12-11T08:24:46.156Z,97089.78
2017-12-11T08:27:12.445Z,97090.70
2017-12-11T08:29:38.713Z,97106.91
2017-12-11T08:32:05.032Z,97112.08
2017-12-11T08:34:32.055Z,97119.77
2017-12-11T08:36:58.369Z,97126.18
2017-12-11T08:39:24.675Z,97125.36
2017-12-11T08:41:51.026Z,97110.48
2017-12-11T08:44:17.377Z,97116.73
2017-12-11T08:46:43.710Z,97118.89
2017-12-11T08:49:10.763Z,97107.71
2017-12-11T08:51:37.773Z,97119.80
2017-12-11T08:54:04.087Z,97123.19
2017-12-11T08:56:30.426Z,97109.12
2017-12-11T08:58:56.723Z,97109.34
2017-12-11T09:01:22.977Z,97113.53
2017-12-11T09:03:49.248Z,97110.80
2017-12-11T09:06:15.667Z,97114.48
2017-12-11T09:08:41.954Z,97098.89
2017-12-11T09:11:08.282Z,97108.23
2017-12-11T09:13:34.636Z,97109.31
2017-12-11T09:16:00.968Z,97107.68
2017-12-11T09:18:27.358Z,97109.31
2017-12-11T09:20:53.684Z,97107.35
2017-12-11T09:23:19.982Z,97103.83
2017-12-11T09:25:46.300Z,97105.23
2017-12-11T09:28:12.590Z,97106.34
2017-12-11T09:30:39.609Z,97118.55
2017-12-11T09:33:05.901Z,97128.38
2017-12-11T09:35:32.189Z,97131.33
2017-12-11T09:37:59.211Z,97131.06
2017-12-11T09:40:25.503Z,97130.52
2017-12-11T09:42:51.837Z,97122.48
2017-12-11T09:45:18.145Z,97118.15
2017-12-11T09:47:44.538Z,97114.98
2017-12-11T09:50:10.845Z,97103.60
2017-12-11T09:52:37.167Z,97100.64
2017-12-11T09:55:03.477Z,97090.33
2017-12-11T09:57:29.774Z,97087.14
2017-12-11T09:59:56.135Z,97080.59
2017-12-11T10:02:22.600Z,97079.53
2017-12-11T10:04:48.935Z,97064.88
2017-12-11T10:07:15.275Z,97056.48
2017-12-11T10:09:41.606Z,97054.02
2017-12-11T10:12:08.716Z,97051.42
2017-12-11T10:14:35.046Z,97048.05
2017-12-11T10:17:01.490Z,97048.29
2017-12-11T10:19:27.748Z,97038.86
2017-12-11T10:21:54.411Z,97035.33
2017-12-11T10:24:20.715Z,97039.52
2017-12-11T10:26:47.004Z,97028.33
2017-12-11T10:29:14.049Z,97022.77
2017-12-11T10:31:40.417Z,97017.38
2017-12-11T10:34:06.796Z,97015.22
2017-12-11T10:36:33.874Z,97020.39
2017-12-11T10:39:00.333Z,96992.56
2017-12-11T10:41:26.655Z,96992.84
2017-12-11T10:43:52.949Z,97012.63
2017-12-11T10:46:20.006Z,97009.51
2017-12-11T10:48:47.027Z,96997.17
2017-12-11T10:51:13.382Z,97005.33
2017-12-11T10:53:40.422Z,97011.66
2017-12-11T10:56:07.474Z,97019.25
2017-12-11T10:58:34.580Z,97020.52
2017-12-11T11:01:00.880Z,97013.47
2017-12-11T11:03:27.209Z,97022.36
2017-12-11T11:05:53.552Z,97016.89
2017-12-11T11:08:19.886Z,97010.38
2017-12-11T11:10:46.214Z,96990.89
2017-12-11T11:13:12.584Z,97000.78
2017-12-11T11:15:38.869Z,97006.94
2017-12-11T11:18:05.158Z,97008.08
2017-12-11T11:20:32.240Z,97010.63
2017-12-11T11:22:58.542Z,96995.98
2017-12-11T11:25:25.685Z,96986.83
2017-12-11T11:27:51.961Z,96997.02
2017-12-11T11:30:18.276Z,96989.84
2017-12-11T11:32:44.601Z,96979.95
2017-12-11T11:35:11.697Z,96981.59
2017-12-11T11:40:04.298Z,96978.42
2017-12-11T11:42:31.367Z,96969.60
2017-12-11T11:44:57.727Z,96955.19
2017-12-11T11:47:24.111Z,96945.82
2017-12-11T11:49:51.148Z,96943.29
2017-12-11T11:52:17.467Z,96936.97
2017-12-11T11:54:43.791Z,96922.23
2017-12-11T11:57:10.105Z,96900.83
2017-12-11T11:59:36.530Z,96911.73
2017-12-11T12:02:02.852Z,96914.44
2017-12-11T12:04:29.130Z,96901.05
2017-12-11T12:06:55.492Z,96900.18
2017-12-11T12:09:21.870Z,96903.80
2017-12-11T12:11:48.210Z,96904.83
2017-12-11T12:14:15.376Z,96904.18
2017-12-11T12:16:41.658Z,96897.53
2017-12-11T12:19:07.988Z,96883.73
2017-12-11T12:21:34.310Z,96879.94
2017-12-11T12:24:00.616Z,96870.86
2017-12-11T12:26:27.773Z,96878.22
2017-12-11T12:28:54.937Z,96878.84
2017-12-11T12:31:21.259Z,96874.46
2017-12-11T12:33:48.375Z,96879.92
2017-12-11T12:36:14.683Z,96882.73
2017-12-11T12:38:40.977Z,96893.72
2017-12-11T12:41:07.309Z,96880.91
2017-12-11T12:43:33.663Z,96868.39
2017-12-11T12:45:59.996Z,96862.67
2017-12-11T12:48:26.383Z,96861.91
2017-12-11T12:50:53.487Z,96859.70
2017-12-11T12:53:19.781Z,96847.99
2017-12-11T12:55:46.073Z,96846.30
2017-12-11T12:58:12.397Z,96844.66
2017-12-11T13:00:38.706Z,96842.59
2017-12-11T13:03:05.004Z,96856.83
2017-12-11T13:05:31.368Z,96848.53
2017-12-11T13:07:57.772Z,96853.48
2017-12-11T13:10:24.130Z,96847.17
2017-12-11T13:12:50.462Z,96841.45
2017-12-11T13:15:16.764Z,96842.66
2017-12-11T13:17:43.060Z,96833.70
2017-12-11T13:20:09.390Z,96833.55
2017-12-11T13:22:35.737Z,96815.16
2017-12-11T13:25:02.877Z,96803.03
2017-12-11T13:27:29.197Z,96788.36
2017-12-11T13:29:55.568Z,96779.25
2017-12-11T13:32:21.929Z,96764.78
2017-12-11T13:34:48.279Z,96762.28
2017-12-11T13:37:14.698Z,96761.16
2017-12-11T13:39:41.007Z,96749.67
2017-12-11T13:42:07.328Z,96761.01
2017-12-11T13:44:33.771Z,96761.69
2017-12-11T13:49:26.499Z,96762.76
2017-12-11T13:51:52.879Z,96772.20
2017-12-11T13:54:19.197Z,96778.26
2017-12-11T13:56:45.609Z,96760.94
2017-12-11T13:59:12.667Z,96781.02
2017-12-11T14:01:38.959Z,96782.61
2017-12-11T14:04:05.244Z,96769.35
2017-12-11T14:06:31.535Z,96767.59
2017-12-11T14:08:57.846Z,96762.37
2017-12-11T14:11:24.134Z,96761.95
2017-12-11T14:13:50.449Z,96756.07
2017-12-11T14:16:17.559Z,96754.87
2017-12-11T14:18:44.600Z,96750.40
2017-12-11T14:21:10.999Z,96750.86
2017-12-11T14:23:37.280Z,96753.31
2017-12-11T14:26:04.339Z,96756.09
2017-12-11T14:28:31.432Z,96748.81
2017-12-11T14:30:57.791Z,96747.91
2017-12-11T14:33:24.153Z,96747.59
2017-12-11T14:35:50.454Z,96747.94
2017-12-11T14:38:17.541Z,96743.61
2017-12-11T14:40:44.583Z,96754.84
2017-12-11T14:43:11.622Z,96752.00
2017-12-11T14:45:37.953Z,96760.50
2017-12-11T14:48:05.045Z,96767.03
2017-12-11T14:50:31.371Z,96768.92
2017-12-11T14:52:57.695Z,96762.94
2017-12-11T14:55:24.047Z,96776.58
2017-12-11T14:57:50.376Z,96764.77
2017-12-11T15:00:16.712Z,96773.11
2017-12-11T15:02:43.025Z,96764.06
2017-12-11T15:05:09.418Z,96721.91
2017-12-11T15:07:35.786Z,96748.77
2017-12-11T15:10:02.148Z,96762.44
2017-12-11T15:12:28.485Z,96741.31
2017-12-11T15:14:54.780Z,96747.80
2017-12-11T15:17:21.136Z,96741.67
2017-12-11T15:19:47.510Z,96743.91
2017-12-11T15:22:13.836Z,96734.53
2017-12-11T15:24:40.955Z,96727.08
2017-12-11T15:27:07.305Z,96733.34
2017-12-11T15:29:33.644Z,96741.06
2017-12-11T15:31:59.991Z,96729.98
2017-12-11T15:34:27.068Z,96724.71
2017-12-11T15:36:53.399Z,96730.97
2017-12-11T15:39:19.743Z,96735.98
2017-12-11T15:41:46.099Z,96731.08
2017-12-11T15:44:12.451Z,96730.74
2017-12-11T15:46:38.843Z,96738.06
2017-12-11T15:49:05.245Z,96741.64
2017-12-11T15:51:31.535Z,96756.72
2017-12-11T15:53:57.917Z,96746.17
2017-12-11T15:56:24.277Z,96750.06
2017-12-11T15:58:50.741Z,96755.45
2017-12-11T16:01:17.119Z,96757.00
2017-12-11T16:03:43.480Z,96755.14
2017-12-11T16:06:09.775Z,96752.21
2017-12-11T16:08:36.860Z,96736.29
2017-12-11T16:11:03.190Z,96745.80
2017-12-11T16:13:29.580Z,96744.63
2017-12-11T16:15:55.899Z,96741.52
2017-12-11T16:18:22.973Z,96736.77
2017-12-11T16:20:49.362Z,96713.34
2017-12-11T16:23:15.710Z,96724.46
2017-12-11T16:25:42.784Z,96707.90
2017-12-11T16:28:09.120Z,96703.78
2017-12-11T16:30:35.454Z,96701.87
2017-12-11T16:33:01.823Z,96699.27
2017-12-11T16:35:28.260Z,96697.36
2017-12-11T16:37:54.611Z,96703.48
2017-12-11T16:40:21.053Z,96702.88
2017-12-11T16:42:47.725Z,96709.90
2017-12-11T16:45:14.120Z,96702.36
2017-12-11T16:47:47.507Z,96701.69
2017-12-11T16:50:13.912Z,96701.98
2017-12-11T16:52:40.230Z,96699.27
2017-12-11T16:55:06.562Z,96714.42
2017-12-11T16:57:32.978Z,96715.70
2017-12-11T16:59:59.387Z,96730.14
2017-12-11T17:02:26.583Z,96730.95
2017-12-11T17:04:52.865Z,96733.40
2017-12-11T17:07:19.188Z,96756.98
2017-12-11T17:09:45.529Z,96767.98
2017-12-11T17:12:12.589Z,96752.87
2017-12-11T17:14:39.770Z,96788.33
2017-12-11T17:17:06.111Z,96792.50
2017-12-11T17:19:32.415Z,96794.55
2017-12-11T17:21:58.759Z,96795.80
2017-12-11T17:24:25.128Z,96806.32
2017-12-11T17:26:51.477Z,96810.09
2017-12-11T17:29:17.817Z,96817.13
2017-12-11T17:31:45.025Z,96841.31
2017-12-11T17:34:11.764Z,96841.40
2017-12-11T17:36:38.141Z,96834.27
2017-12-11T17:39:11.564Z,96843.09
2017-12-11T17:41:37.833Z,96855.66
2017-12-11T17:44:04.197Z,96869.05
2017-12-11T17:46:31.336Z,96857.92
2017-12-11T17:48:57.703Z,96842.97
2017-12-11T17:51:24.004Z,96854.47
2017-12-11T17:53:50.331Z,96878.66
2017-12-11T17:56:16.642Z,96890.90
2017-12-11T17:58:46.873Z,96889.02
2017-12-11T18:01:13.177Z,96894.84
2017-12-11T18:03:39.504Z,96889.54
2017-12-11T18:06:06.722Z,96890.58
2017-12-11T18:08:33.817Z,96886.72
2017-12-11T18:11:00.151Z,96886.02
2017-12-11T18:13:26.546Z,96904.00
2017-12-11T18:15:52.925Z,96890.54
2017-12-11T18:18:19.240Z,96887.75
2017-12-11T18:20:45.582Z,96890.45
2017-12-11T18:23:11.903Z,96900.24
2017-12-11T18:25:38.261Z,96910.41
2017-12-11T18:28:04.767Z,96909.54
2017-12-11T18:30:31.107Z,96907.89
2017-12-11T18:32:57.465Z,96903.17
2017-12-11T18:35:23.771Z,96900.88
2017-12-11T18:37:50.153Z,96905.19
2017-12-11T18:40:17.260Z,96895.97
2017-12-11T18:42:43.707Z,96915.91
2017-12-11T18:45:10.122Z,96914.66
2017-12-11T18:47:36.448Z,96901.70
2017-12-11T18:50:02.816Z,96910.44
2017-12-11T18:52:29.993Z,96943.33
2017-12-11T18:54:56.454Z,96947.23
2017-12-11T18:57:22.854Z,96944.98
2017-12-11T18:59:49.924Z,96932.12
2017-12-11T19:02:16.278Z,96929.63
2017-12-11T19:04:42.650Z,96926.03
2017-12-11T19:07:09.008Z,96913.14
2017-12-11T19:09:36.311Z,96923.58
2017-12-11T19:12:02.669Z,96916.36
2017-12-11T19:14:29.824Z,96906.77
2017-12-11T19:16:56.982Z,96907.02
2017-12-11T19:19:24.052Z,96908.92
2017-12-11T19:21:50.503Z,96932.76
2017-12-11T19:24:16.829Z,96951.59
2017-12-11T19:26:43.287Z,96961.88
2017-12-11T19:29:09.707Z,96968.72
2017-12-11T19:31:36.077Z,96967.20
2017-12-11T19:34:02.489Z,96961.99
2017-12-11T19:36:28.888Z,96963.20
2017-12-11T19:38:55.228Z,96962.55
2017-12-11T19:41:21.561Z,96952.81
2017-12-11T19:43:48.050Z,96948.02
2017-12-11T19:46:14.400Z,96929.55
2017-12-11T19:48:41.558Z,96926.89
2017-12-11T19:51:07.938Z,96938.58
2017-12-11T19:53:34.393Z,96944.87
2017-12-11T19:56:00.814Z,96946.02
2017-12-11T19:58:27.722Z,96948.66
2017-12-11T20:00:54.207Z,96959.51
2017-12-11T20:03:20.574Z,96953.97
2017-12-11T20:05:46.901Z,96962.95
2017-12-11T20:08:13.293Z,96947.77
2017-12-11T20:10:39.858Z,96943.55
2017-12-11T20:13:06.227Z,96939.30
2017-12-11T20:15:32.569Z,96929.89
2017-12-11T20:17:58.963Z,96914.21
2017-12-11T20:20:25.343Z,96909.33
2017-12-11T20:22:51.783Z,96917.02
2017-12-11T20:25:18.134Z,96936.16
2017-12-11T20:27:49.796Z,96943.98
2017-12-11T20:30:16.934Z,96928.32
2017-12-11T20:32:43.347Z,96935.65
2017-12-11T20:35:09.709Z,96933.81
2017-12-11T20:37:36.875Z,96932.40
2017-12-11T20:40:03.334Z,96933.80
2017-12-11T20:42:29.751Z,96945.17
2017-12-11T20:44:56.148Z,96952.83
2017-12-11T20:47:22.598Z,96964.25
2017-12-11T20:49:49.791Z,96977.44
2017-12-11T20:52:16.149Z,96987.92
2017-12-11T20:54:42.527Z,96984.84
2017-12-11T20:57:08.921Z,96963.23
2017-12-11T20:59:35.386Z,96946.41
2017-12-11T21:02:02.543Z,96953.66
2017-12-11T21:04:28.979Z,96956.66
2017-12-11T21:06:56.152Z,96973.13
2017-12-11T21:09:22.474Z,96991.53
2017-12-11T21:11:48.833Z,96997.41
2017-12-11T21:14:15.549Z,97001.50
2017-12-11T21:16:41.914Z,97008.17
2017-12-11T21:19:08.220Z,97004.25
2017-12-11T21:21:34.615Z,96993.66
2017-12-11T21:24:01.018Z,96990.48
2017-12-11T21:26:27.517Z,97004.73
2017-12-11T21:28:54.751Z,96985.62
2017-12-11T21:31:21.114Z,96993.91
2017-12-11T21:33:47.527Z,96994.82
2017-12-11T21:36:13.865Z,96998.06
2017-12-11T21:38:41.068Z,97013.59
2017-12-11T21:41:07.372Z,97022.95
2017-12-11T21:43:33.669Z,97007.78
2017-12-11T21:46:00.042Z,97024.59
2017-12-11T21:48:26.376Z,97019.48
2017-12-11T21:50:52.677Z,97028.02
2017-12-11T21:53:20.094Z,97041.69
2017-12-11T21:55:47.192Z,97052.03
2017-12-11T21:58:13.523Z,97045.63
2017-12-11T22:00:39.849Z,97046.39
2017-12-11T22:03:06.178Z,97041.05
2017-12-11T22:05:32.472Z,97043.66
2017-12-11T22:07:59.571Z,97048.91
2017-12-11T22:10:25.874Z,97044.47
2017-12-11T22:12:52.244Z,97051.34
2017-12-11T22:15:18.542Z,97064.16
2017-12-11T22:17:44.905Z,97057.20
2017-12-11T22:20:11.236Z,97064.78
2017-12-11T22:22:37.610Z,97061.37
2017-12-11T22:25:04.690Z,97067.39
2017-12-11T22:27:31.018Z,97051.31
2017-12-11T22:29:57.308Z,97046.58
2017-12-11T22:32:24.412Z,97069.67
2017-12-11T22:34:50.791Z,97065.34
2017-12-11T22:37:17.821Z,97059.56
2017-12-11T22:39:44.183Z,97063.52
2017-12-11T22:42:11.258Z,97049.34
2017-12-11T22:44:37.606Z,97054.16
2017-12-11T22:47:03.937Z,97053.94
2017-12-11T22:49:30.319Z,97060.31
2017-12-11T22:51:57.394Z,97067.02
2017-12-11T22:54:23.763Z,97061.06
2017-12-11T22:56:50.073Z,97062.20
2017-12-11T22:59:16.393Z,97065.11
2017-12-11T23:01:42.727Z,97070.66
2017-12-11T23:04:09.037Z,97060.03
2017-12-11T23:06:36.097Z,97054.73
2017-12-11T23:09:02.398Z,97045.39
2017-12-11T23:11:29.478Z,97041.30
2017-12-11T23:14:02.760Z,97048.61
2017-12-11T23:16:29.826Z,97051.34
2017-12-11T23:18:56.137Z,97053.80
2017-12-11T23:21:23.180Z,97054.08
2017-12-11T23:23:50.277Z,97059.55
2017-12-11T23:26:16.609Z,97069.02
2017-12-11T23:28:42.923Z,97060.64
2017-12-11T23:31:09.319Z,97049.84
2017-12-11T23:33:36.470Z,97056.78
2017-12-11T23:36:03.538Z,97052.73
2017-12-11T23:38:29.854Z,97057.63
2017-12-11T23:40:56.898Z,97065.79
2017-12-11T23:43:23.976Z,97048.73
2017-12-11T23:45:50.304Z,97037.62
2017-12-11T23:48:16.629Z,97065.06
2017-12-11T23:50:43.035Z,97081.60
2017-12-11T23:53:09.428Z,97077.84
2017-12-11T23:55:35.752Z,97072.52
2017-12-11T23:58:02.059Z,97065.09
